sensor_id;sensor_type;location;lat;lon;timestamp;temperature;humidity
67194;DHT22;54121;53.508;49.422;2023-05-15T00:00:27;15.90;53.20
67194;DHT22;54121;53.508;49.422;2023-05-15T00:02:59;15.90;53.20
67194;DHT22;54121;53.508;49.422;2023-05-15T00:05:28;13.60;52.10
67194;DHT22;54121;53.508;49.422;2023-05-15T00:07:54;15.90;53.50
67194;DHT22;54121;53.508;49.422;2023-05-15T00:10:25;15.80;53.80
67194;DHT22;54121;53.508;49.422;2023-05-15T00:12:56;14.50;52.90
67194;DHT22;54121;53.508;49.422;2023-05-15T00:15:25;15.80;53.80
67194;DHT22;54121;53.508;49.422;2023-05-15T00:17:52;15.80;53.80
67194;DHT22;54121;53.508;49.422;2023-05-15T00:20:23;15.70;54.00
67194;DHT22;54121;53.508;49.422;2023-05-15T00:22:49;15.70;54.60
67194;DHT22;54121;53.508;49.422;2023-05-15T00:25:20;15.70;54.80
67194;DHT22;54121;53.508;49.422;2023-05-15T00:27:49;14.00;53.80
67194;DHT22;54121;53.508;49.422;2023-05-15T00:30:15;15.80;54.90
67194;DHT22;54121;53.508;49.422;2023-05-15T00:32:44;15.70;55.30
67194;DHT22;54121;53.508;49.422;2023-05-15T00:35:11;15.70;55.50
67194;DHT22;54121;53.508;49.422;2023-05-15T00:37:37;15.70;55.50
67194;DHT22;54121;53.508;49.422;2023-05-15T00:40:06;14.50;54.90
67194;DHT22;54121;53.508;49.422;2023-05-15T00:42:34;15.70;55.80
67194;DHT22;54121;53.508;49.422;2023-05-15T00:45:03;15.70;55.70
67194;DHT22;54121;53.508;49.422;2023-05-15T00:47:35;15.70;56.00
67194;DHT22;54121;53.508;49.422;2023-05-15T00:50:07;15.70;56.10
67194;DHT22;54121;53.508;49.422;2023-05-15T00:52:34;15.70;56.10
67194;DHT22;54121;53.508;49.422;2023-05-15T00:55:02;15.70;56.20
67194;DHT22;54121;53.508;49.422;2023-05-15T00:57:31;15.60;56.50
67194;DHT22;54121;53.508;49.422;2023-05-15T00:59:58;15.70;56.50
67194;DHT22;54121;53.508;49.422;2023-05-15T01:02:32;15.80;56.20
67194;DHT22;54121;53.508;49.422;2023-05-15T01:04:58;15.90;56.00
67194;DHT22;54121;53.508;49.422;2023-05-15T01:07:27;15.80;56.00
67194;DHT22;54121;53.508;49.422;2023-05-15T01:09:58;15.70;56.50
67194;DHT22;54121;53.508;49.422;2023-05-15T01:12:25;15.70;56.20
67194;DHT22;54121;53.508;49.422;2023-05-15T01:14:52;14.50;55.40
67194;DHT22;54121;53.508;49.422;2023-05-15T01:17:24;15.80;55.90
67194;DHT22;54121;53.508;49.422;2023-05-15T01:19:51;15.90;55.60
67194;DHT22;54121;53.508;49.422;2023-05-15T01:23:02;16.10;54.90
67194;DHT22;54121;53.508;49.422;2023-05-15T01:27:53;16.00;55.10
67194;DHT22;54121;53.508;49.422;2023-05-15T01:30:27;16.00;55.10
67194;DHT22;54121;53.508;49.422;2023-05-15T01:39:18;16.10;54.80
67194;DHT22;54121;53.508;49.422;2023-05-15T01:43:43;16.10;55.10
67194;DHT22;54121;53.508;49.422;2023-05-15T01:46:13;16.30;54.10
67194;DHT22;54121;53.508;49.422;2023-05-15T01:48:42;16.20;54.30
67194;DHT22;54121;53.508;49.422;2023-05-15T01:51:12;16.40;54.00
67194;DHT22;54121;53.508;49.422;2023-05-15T01:53:42;15.00;53.50
67194;DHT22;54121;53.508;49.422;2023-05-15T01:56:11;16.70;53.70
67194;DHT22;54121;53.508;49.422;2023-05-15T01:58:39;17.10;51.90
67194;DHT22;54121;53.508;49.422;2023-05-15T02:01:11;17.40;50.90
67194;DHT22;54121;53.508;49.422;2023-05-15T02:03:39;17.60;50.30
67194;DHT22;54121;53.508;49.422;2023-05-15T02:06:06;17.70;49.10
67194;DHT22;54121;53.508;49.422;2023-05-15T02:08:32;18.20;47.20
67194;DHT22;54121;53.508;49.422;2023-05-15T02:11:03;19.40;45.50
67194;DHT22;54121;53.508;49.422;2023-05-15T02:13:32;19.90;43.70
67194;DHT22;54121;53.508;49.422;2023-05-15T02:16:02;20.50;42.10
67194;DHT22;54121;53.508;49.422;2023-05-15T02:18:32;21.10;40.20
67194;DHT22;54121;53.508;49.422;2023-05-15T02:21:00;21.40;39.10
67194;DHT22;54121;53.508;49.422;2023-05-15T02:23:27;21.90;37.70
67194;DHT22;54121;53.508;49.422;2023-05-15T02:28:37;22.70;35.40
67194;DHT22;54121;53.508;49.422;2023-05-15T02:31:11;22.90;34.40
67194;DHT22;54121;53.508;49.422;2023-05-15T02:33:44;23.30;32.60
67194;DHT22;54121;53.508;49.422;2023-05-15T02:36:17;23.70;32.20
67194;DHT22;54121;53.508;49.422;2023-05-15T02:38:51;24.10;31.40
67194;DHT22;54121;53.508;49.422;2023-05-15T02:41:17;24.40;30.30
67194;DHT22;54121;53.508;49.422;2023-05-15T02:43:48;24.40;30.00
67194;DHT22;54121;53.508;49.422;2023-05-15T02:46:18;24.90;29.60
67194;DHT22;54121;53.508;49.422;2023-05-15T02:48:44;25.20;28.70
67194;DHT22;54121;53.508;49.422;2023-05-15T02:51:13;25.10;28.90
67194;DHT22;54121;53.508;49.422;2023-05-15T02:53:44;25.10;29.10
67194;DHT22;54121;53.508;49.422;2023-05-15T02:56:13;25.20;28.70
67194;DHT22;54121;53.508;49.422;2023-05-15T02:58:42;25.10;29.00
67194;DHT22;54121;53.508;49.422;2023-05-15T03:01:08;25.20;28.90
67194;DHT22;54121;53.508;49.422;2023-05-15T03:03:37;24.20;27.70
67194;DHT22;54121;53.508;49.422;2023-05-15T03:06:06;26.00;27.70
67194;DHT22;54121;53.508;49.422;2023-05-15T03:08:33;26.10;27.60
67194;DHT22;54121;53.508;49.422;2023-05-15T03:10:59;26.80;26.60
67194;DHT22;54121;53.508;49.422;2023-05-15T03:13:26;27.20;26.10
67194;DHT22;54121;53.508;49.422;2023-05-15T03:15:57;26.20;24.80
67194;DHT22;54121;53.508;49.422;2023-05-15T03:18:23;27.30;25.90
67194;DHT22;54121;53.508;49.422;2023-05-15T03:20:54;27.50;25.70
67194;DHT22;54121;53.508;49.422;2023-05-15T03:23:23;27.90;25.20
67194;DHT22;54121;53.508;49.422;2023-05-15T03:25:51;28.80;24.10
67194;DHT22;54121;53.508;49.422;2023-05-15T03:28:18;28.90;23.30
67194;DHT22;54121;53.508;49.422;2023-05-15T03:30:46;29.30;23.00
67194;DHT22;54121;53.508;49.422;2023-05-15T03:33:15;29.10;23.10
67194;DHT22;54121;53.508;49.422;2023-05-15T03:35:44;29.70;22.60
67194;DHT22;54121;53.508;49.422;2023-05-15T03:38:13;29.70;22.40
67194;DHT22;54121;53.508;49.422;2023-05-15T03:40:42;29.70;22.20
67194;DHT22;54121;53.508;49.422;2023-05-15T03:43:08;30.70;20.90
67194;DHT22;54121;53.508;49.422;2023-05-15T03:45:35;30.60;21.30
67194;DHT22;54121;53.508;49.422;2023-05-15T03:48:04;31.30;20.40
67194;DHT22;54121;53.508;49.422;2023-05-15T03:50:30;31.00;20.30
67194;DHT22;54121;53.508;49.422;2023-05-15T03:52:57;32.00;19.70
67194;DHT22;54121;53.508;49.422;2023-05-15T03:55:26;32.00;19.00
67194;DHT22;54121;53.508;49.422;2023-05-15T03:57:55;32.30;19.00
67194;DHT22;54121;53.508;49.422;2023-05-15T04:00:24;32.20;19.20
67194;DHT22;54121;53.508;49.422;2023-05-15T04:02:53;33.20;17.60
67194;DHT22;54121;53.508;49.422;2023-05-15T04:05:23;33.60;17.50
67194;DHT22;54121;53.508;49.422;2023-05-15T04:07:51;33.20;17.80
67194;DHT22;54121;53.508;49.422;2023-05-15T04:10:20;33.50;17.70
67194;DHT22;54121;53.508;49.422;2023-05-15T04:12:49;33.70;17.70
67194;DHT22;54121;53.508;49.422;2023-05-15T04:15:23;32.10;16.70
67194;DHT22;54121;53.508;49.422;2023-05-15T04:17:52;34.40;17.10
67194;DHT22;54121;53.508;49.422;2023-05-15T04:20:20;34.10;17.20
67194;DHT22;54121;53.508;49.422;2023-05-15T04:22:49;34.60;16.40
67194;DHT22;54121;53.508;49.422;2023-05-15T04:25:21;34.80;16.30
67194;DHT22;54121;53.508;49.422;2023-05-15T04:27:51;35.30;15.80
67194;DHT22;54121;53.508;49.422;2023-05-15T04:30:20;36.50;15.90
67194;DHT22;54121;53.508;49.422;2023-05-15T04:32:49;35.70;15.10
67194;DHT22;54121;53.508;49.422;2023-05-15T04:35:19;35.40;15.00
67194;DHT22;54121;53.508;49.422;2023-05-15T04:37:48;35.40;15.90
67194;DHT22;54121;53.508;49.422;2023-05-15T04:40:16;35.80;15.30
67194;DHT22;54121;53.508;49.422;2023-05-15T04:42:43;35.60;15.60
67194;DHT22;54121;53.508;49.422;2023-05-15T04:45:12;37.10;16.10
67194;DHT22;54121;53.508;49.422;2023-05-15T04:47:42;35.40;15.40
67194;DHT22;54121;53.508;49.422;2023-05-15T04:50:13;36.10;14.80
67194;DHT22;54121;53.508;49.422;2023-05-15T04:52:42;35.60;15.30
67194;DHT22;54121;53.508;49.422;2023-05-15T04:55:10;36.80;14.20
67194;DHT22;54121;53.508;49.422;2023-05-15T04:57:39;36.80;14.00
67194;DHT22;54121;53.508;49.422;2023-05-15T05:00:06;36.60;14.10
67194;DHT22;54121;53.508;49.422;2023-05-15T05:02:37;36.40;14.30
67194;DHT22;54121;53.508;49.422;2023-05-15T05:05:04;37.00;14.10
67194;DHT22;54121;53.508;49.422;2023-05-15T05:07:33;37.10;13.20
67194;DHT22;54121;53.508;49.422;2023-05-15T05:10:05;37.40;13.20
67194;DHT22;54121;53.508;49.422;2023-05-15T05:12:34;37.30;13.80
67194;DHT22;54121;53.508;49.422;2023-05-15T05:15:02;37.00;13.40
67194;DHT22;54121;53.508;49.422;2023-05-15T05:17:31;36.40;14.10
67194;DHT22;54121;53.508;49.422;2023-05-15T05:19:57;35.70;14.50
67194;DHT22;54121;53.508;49.422;2023-05-15T05:22:26;35.10;15.00
67194;DHT22;54121;53.508;49.422;2023-05-15T05:24:55;35.40;15.20
67194;DHT22;54121;53.508;49.422;2023-05-15T05:27:21;35.20;15.60
67194;DHT22;54121;53.508;49.422;2023-05-15T05:29:50;34.20;15.50
67194;DHT22;54121;53.508;49.422;2023-05-15T05:32:20;34.40;15.90
67194;DHT22;54121;53.508;49.422;2023-05-15T05:34:47;33.80;15.60
67194;DHT22;54121;53.508;49.422;2023-05-15T05:37:13;34.20;15.80
67194;DHT22;54121;53.508;49.422;2023-05-15T05:39:39;33.80;15.80
67194;DHT22;54121;53.508;49.422;2023-05-15T05:42:06;33.50;16.10
67194;DHT22;54121;53.508;49.422;2023-05-15T05:44:35;33.90;15.70
67194;DHT22;54121;53.508;49.422;2023-05-15T05:47:01;33.60;16.40
67194;DHT22;54121;53.508;49.422;2023-05-15T05:49:27;33.30;15.80
67194;DHT22;54121;53.508;49.422;2023-05-15T05:51:56;33.50;16.10
67194;DHT22;54121;53.508;49.422;2023-05-15T05:54:31;33.60;16.10
67194;DHT22;54121;53.508;49.422;2023-05-15T05:56:58;32.50;16.90
67194;DHT22;54121;53.508;49.422;2023-05-15T05:59:27;32.80;16.20
67194;DHT22;54121;53.508;49.422;2023-05-15T06:01:57;33.00;16.30
67194;DHT22;54121;53.508;49.422;2023-05-15T06:04:26;31.80;17.50
67194;DHT22;54121;53.508;49.422;2023-05-15T06:06:55;32.00;17.10
67194;DHT22;54121;53.508;49.422;2023-05-15T06:09:23;31.50;17.90
67194;DHT22;54121;53.508;49.422;2023-05-15T06:11:52;33.10;16.70
67194;DHT22;54121;53.508;49.422;2023-05-15T06:14:19;34.10;15.60
67194;DHT22;54121;53.508;49.422;2023-05-15T06:16:48;33.70;16.20
67194;DHT22;54121;53.508;49.422;2023-05-15T06:19:17;34.10;15.60
67194;DHT22;54121;53.508;49.422;2023-05-15T06:21:46;33.20;15.80
67194;DHT22;54121;53.508;49.422;2023-05-15T06:24:13;33.40;16.20
67194;DHT22;54121;53.508;49.422;2023-05-15T06:26:41;34.10;16.70
67194;DHT22;54121;53.508;49.422;2023-05-15T06:29:13;34.90;14.40
67194;DHT22;54121;53.508;49.422;2023-05-15T06:31:40;35.20;14.40
67194;DHT22;54121;53.508;49.422;2023-05-15T06:34:06;35.40;14.30
67194;DHT22;54121;53.508;49.422;2023-05-15T06:36:37;35.50;14.20
67194;DHT22;54121;53.508;49.422;2023-05-15T06:39:06;35.40;14.40
67194;DHT22;54121;53.508;49.422;2023-05-15T06:41:37;34.90;14.90
67194;DHT22;54121;53.508;49.422;2023-05-15T06:44:09;34.80;15.40
67194;DHT22;54121;53.508;49.422;2023-05-15T06:46:35;35.40;15.30
67194;DHT22;54121;53.508;49.422;2023-05-15T06:49:04;34.50;14.90
67194;DHT22;54121;53.508;49.422;2023-05-15T06:51:33;35.10;14.70
67194;DHT22;54121;53.508;49.422;2023-05-15T06:53:59;34.80;14.90
67194;DHT22;54121;53.508;49.422;2023-05-15T06:56:28;33.50;16.20
67194;DHT22;54121;53.508;49.422;2023-05-15T06:58:57;33.30;16.30
67194;DHT22;54121;53.508;49.422;2023-05-15T07:01:26;32.90;17.10
67194;DHT22;54121;53.508;49.422;2023-05-15T07:03:55;33.10;16.60
67194;DHT22;54121;53.508;49.422;2023-05-15T07:06:21;33.40;16.70
67194;DHT22;54121;53.508;49.422;2023-05-15T07:08:48;33.50;16.50
67194;DHT22;54121;53.508;49.422;2023-05-15T07:11:16;33.50;16.70
67194;DHT22;54121;53.508;49.422;2023-05-15T07:13:45;32.90;16.50
67194;DHT22;54121;53.508;49.422;2023-05-15T07:16:16;32.70;16.70
67194;DHT22;54121;53.508;49.422;2023-05-15T07:18:43;33.00;17.80
67194;DHT22;54121;53.508;49.422;2023-05-15T07:21:11;33.60;17.00
67194;DHT22;54121;53.508;49.422;2023-05-15T07:23:39;33.80;15.80
67194;DHT22;54121;53.508;49.422;2023-05-15T07:26:05;33.30;17.40
67194;DHT22;54121;53.508;49.422;2023-05-15T07:28:34;32.40;15.70
67194;DHT22;54121;53.508;49.422;2023-05-15T07:31:03;34.00;15.70
67194;DHT22;54121;53.508;49.422;2023-05-15T07:33:30;34.00;16.00
67194;DHT22;54121;53.508;49.422;2023-05-15T07:35:59;33.50;16.10
67194;DHT22;54121;53.508;49.422;2023-05-15T07:38:28;34.20;15.30
67194;DHT22;54121;53.508;49.422;2023-05-15T07:40:54;34.20;15.50
67194;DHT22;54121;53.508;49.422;2023-05-15T07:43:23;33.50;16.60
67194;DHT22;54121;53.508;49.422;2023-05-15T07:45:54;33.30;17.00
67194;DHT22;54121;53.508;49.422;2023-05-15T07:48:23;34.00;15.50
67194;DHT22;54121;53.508;49.422;2023-05-15T07:50:49;35.00;15.40
67194;DHT22;54121;53.508;49.422;2023-05-15T07:53:17;34.00;15.60
67194;DHT22;54121;53.508;49.422;2023-05-15T07:55:49;33.40;16.50
67194;DHT22;54121;53.508;49.422;2023-05-15T07:58:15;32.80;16.90
67194;DHT22;54121;53.508;49.422;2023-05-15T08:00:42;33.30;16.90
67194;DHT22;54121;53.508;49.422;2023-05-15T08:03:09;32.90;16.90
67194;DHT22;54121;53.508;49.422;2023-05-15T08:05:36;33.50;17.00
67194;DHT22;54121;53.508;49.422;2023-05-15T08:08:04;33.30;15.60
67194;DHT22;54121;53.508;49.422;2023-05-15T08:10:33;33.40;16.10
67194;DHT22;54121;53.508;49.422;2023-05-15T08:13:02;33.20;16.60
67194;DHT22;54121;53.508;49.422;2023-05-15T08:15:28;33.10;16.50
67194;DHT22;54121;53.508;49.422;2023-05-15T08:17:57;32.50;16.90
67194;DHT22;54121;53.508;49.422;2023-05-15T08:20:24;33.70;16.30
67194;DHT22;54121;53.508;49.422;2023-05-15T08:22:53;33.30;15.90
67194;DHT22;54121;53.508;49.422;2023-05-15T08:25:22;33.80;15.60
67194;DHT22;54121;53.508;49.422;2023-05-15T08:27:51;33.50;16.40
67194;DHT22;54121;53.508;49.422;2023-05-15T08:30:21;33.50;16.60
67194;DHT22;54121;53.508;49.422;2023-05-15T08:32:50;33.50;16.10
67194;DHT22;54121;53.508;49.422;2023-05-15T08:35:19;34.30;15.80
67194;DHT22;54121;53.508;49.422;2023-05-15T08:37:51;34.60;16.10
67194;DHT22;54121;53.508;49.422;2023-05-15T08:40:17;34.40;15.30
67194;DHT22;54121;53.508;49.422;2023-05-15T08:42:44;34.70;14.60
67194;DHT22;54121;53.508;49.422;2023-05-15T08:45:13;34.40;15.20
67194;DHT22;54121;53.508;49.422;2023-05-15T08:47:42;35.60;13.70
67194;DHT22;54121;53.508;49.422;2023-05-15T08:50:10;35.20;13.70
67194;DHT22;54121;53.508;49.422;2023-05-15T08:52:43;35.30;14.20
67194;DHT22;54121;53.508;49.422;2023-05-15T08:55:13;35.90;13.90
67194;DHT22;54121;53.508;49.422;2023-05-15T08:57:42;36.00;13.90
67194;DHT22;54121;53.508;49.422;2023-05-15T09:00:11;36.00;13.70
67194;DHT22;54121;53.508;49.422;2023-05-15T09:02:40;36.10;14.20
67194;DHT22;54121;53.508;49.422;2023-05-15T09:05:08;36.60;13.30
67194;DHT22;54121;53.508;49.422;2023-05-15T09:07:37;36.60;13.70
67194;DHT22;54121;53.508;49.422;2023-05-15T09:10:07;37.10;12.60
67194;DHT22;54121;53.508;49.422;2023-05-15T09:12:38;35.90;13.20
67194;DHT22;54121;53.508;49.422;2023-05-15T09:15:15;35.40;14.40
67194;DHT22;54121;53.508;49.422;2023-05-15T09:17:46;35.20;14.20
67194;DHT22;54121;53.508;49.422;2023-05-15T09:20:25;35.60;13.70
67194;DHT22;54121;53.508;49.422;2023-05-15T09:22:51;36.90;13.10
67194;DHT22;54121;53.508;49.422;2023-05-15T09:28:03;36.70;13.40
67194;DHT22;54121;53.508;49.422;2023-05-15T09:30:32;37.10;12.50
67194;DHT22;54121;53.508;49.422;2023-05-15T09:32:59;37.20;12.70
67194;DHT22;54121;53.508;49.422;2023-05-15T09:35:33;38.90;11.80
67194;DHT22;54121;53.508;49.422;2023-05-15T09:38:03;37.80;11.90
67194;DHT22;54121;53.508;49.422;2023-05-15T09:40:32;36.50;12.30
67194;DHT22;54121;53.508;49.422;2023-05-15T09:43:03;37.10;12.10
67194;DHT22;54121;53.508;49.422;2023-05-15T09:45:29;36.20;13.40
67194;DHT22;54121;53.508;49.422;2023-05-15T09:47:59;35.80;13.90
67194;DHT22;54121;53.508;49.422;2023-05-15T09:50:32;35.60;14.00
67194;DHT22;54121;53.508;49.422;2023-05-15T09:53:02;36.50;13.40
67194;DHT22;54121;53.508;49.422;2023-05-15T09:55:32;37.10;12.40
67194;DHT22;54121;53.508;49.422;2023-05-15T09:58:06;36.00;13.40
67194;DHT22;54121;53.508;49.422;2023-05-15T10:00:33;35.30;14.30
67194;DHT22;54121;53.508;49.422;2023-05-15T10:03:02;35.80;13.80
67194;DHT22;54121;53.508;49.422;2023-05-15T10:05:29;36.70;13.20
67194;DHT22;54121;53.508;49.422;2023-05-15T10:07:55;36.70;13.60
67194;DHT22;54121;53.508;49.422;2023-05-15T10:10:27;37.30;12.50
67194;DHT22;54121;53.508;49.422;2023-05-15T10:12:54;37.70;12.70
67194;DHT22;54121;53.508;49.422;2023-05-15T10:15:23;37.20;12.80
67194;DHT22;54121;53.508;49.422;2023-05-15T10:17:50;36.80;13.80
67194;DHT22;54121;53.508;49.422;2023-05-15T10:20:17;37.10;12.40
67194;DHT22;54121;53.508;49.422;2023-05-15T10:22:47;36.50;13.20
67194;DHT22;54121;53.508;49.422;2023-05-15T10:27:59;36.00;13.80
67194;DHT22;54121;53.508;49.422;2023-05-15T10:30:28;36.80;13.50
67194;DHT22;54121;53.508;49.422;2023-05-15T10:32:56;36.90;13.10
67194;DHT22;54121;53.508;49.422;2023-05-15T10:35:27;36.30;13.40
67194;DHT22;54121;53.508;49.422;2023-05-15T10:37:56;36.80;13.40
67194;DHT22;54121;53.508;49.422;2023-05-15T10:40:22;37.00;13.50
67194;DHT22;54121;53.508;49.422;2023-05-15T10:42:48;37.20;13.50
67194;DHT22;54121;53.508;49.422;2023-05-15T10:45:15;37.60;12.90
67194;DHT22;54121;53.508;49.422;2023-05-15T10:47:42;38.10;12.60
67194;DHT22;54121;53.508;49.422;2023-05-15T10:50:11;37.70;13.10
67194;DHT22;54121;53.508;49.422;2023-05-15T10:52:40;38.70;12.20
67194;DHT22;54121;53.508;49.422;2023-05-15T10:55:07;38.00;12.80
67194;DHT22;54121;53.508;49.422;2023-05-15T10:57:35;38.60;12.00
67194;DHT22;54121;53.508;49.422;2023-05-15T11:00:18;38.90;11.50
67194;DHT22;54121;53.508;49.422;2023-05-15T11:02:51;37.70;12.30
67194;DHT22;54121;53.508;49.422;2023-05-15T11:05:21;38.00;12.50
67194;DHT22;54121;53.508;49.422;2023-05-15T11:12:59;38.80;11.60
67194;DHT22;54121;53.508;49.422;2023-05-15T11:15:39;39.90;10.50
67194;DHT22;54121;53.508;49.422;2023-05-15T11:18:06;40.30;10.30
67194;DHT22;54121;53.508;49.422;2023-05-15T11:20:36;40.60;10.20
67194;DHT22;54121;53.508;49.422;2023-05-15T11:23:05;40.80;9.70
67194;DHT22;54121;53.508;49.422;2023-05-15T11:25:37;40.80;9.90
67194;DHT22;54121;53.508;49.422;2023-05-15T11:28:04;40.30;9.90
67194;DHT22;54121;53.508;49.422;2023-05-15T11:30:37;40.80;9.70
67194;DHT22;54121;53.508;49.422;2023-05-15T11:33:10;40.70;10.40
67194;DHT22;54121;53.508;49.422;2023-05-15T11:35:46;40.80;9.40
67194;DHT22;54121;53.508;49.422;2023-05-15T11:38:15;41.20;9.00
67194;DHT22;54121;53.508;49.422;2023-05-15T11:40:45;41.80;9.20
67194;DHT22;54121;53.508;49.422;2023-05-15T11:45:45;40.40;9.50
67194;DHT22;54121;53.508;49.422;2023-05-15T11:48:11;40.20;9.60
67194;DHT22;54121;53.508;49.422;2023-05-15T11:50:40;40.30;9.90
67194;DHT22;54121;53.508;49.422;2023-05-15T11:53:08;40.00;10.40
67194;DHT22;54121;53.508;49.422;2023-05-15T11:55:39;40.40;9.90
67194;DHT22;54121;53.508;49.422;2023-05-15T11:58:12;39.70;10.30
67194;DHT22;54121;53.508;49.422;2023-05-15T12:00:45;39.70;10.30
67194;DHT22;54121;53.508;49.422;2023-05-15T12:05:41;41.00;9.20
67194;DHT22;54121;53.508;49.422;2023-05-15T12:08:08;40.80;10.10
67194;DHT22;54121;53.508;49.422;2023-05-15T12:10:38;40.80;9.60
67194;DHT22;54121;53.508;49.422;2023-05-15T12:13:05;41.20;9.40
67194;DHT22;54121;53.508;49.422;2023-05-15T12:15:31;42.30;8.70
67194;DHT22;54121;53.508;49.422;2023-05-15T12:18:01;42.50;8.90
67194;DHT22;54121;53.508;49.422;2023-05-15T12:20:31;42.10;8.20
67194;DHT22;54121;53.508;49.422;2023-05-15T12:23:04;41.90;8.30
67194;DHT22;54121;53.508;49.422;2023-05-15T12:25:40;43.10;7.60
67194;DHT22;54121;53.508;49.422;2023-05-15T12:28:08;42.00;8.10
67194;DHT22;54121;53.508;49.422;2023-05-15T12:30:34;41.10;8.90
67194;DHT22;54121;53.508;49.422;2023-05-15T12:33:05;41.10;8.40
67194;DHT22;54121;53.508;49.422;2023-05-15T12:35:35;41.60;8.30
67194;DHT22;54121;53.508;49.422;2023-05-15T12:38:04;40.70;8.50
67194;DHT22;54121;53.508;49.422;2023-05-15T12:40:36;41.20;8.10
67194;DHT22;54121;53.508;49.422;2023-05-15T12:43:03;40.60;8.10
67194;DHT22;54121;53.508;49.422;2023-05-15T12:45:30;40.90;8.70
67194;DHT22;54121;53.508;49.422;2023-05-15T12:48:05;40.90;8.00
67194;DHT22;54121;53.508;49.422;2023-05-15T12:50:36;40.30;8.40
67194;DHT22;54121;53.508;49.422;2023-05-15T12:53:03;39.80;9.00
67194;DHT22;54121;53.508;49.422;2023-05-15T12:55:30;41.00;8.60
67194;DHT22;54121;53.508;49.422;2023-05-15T12:58:02;40.80;8.60
67194;DHT22;54121;53.508;49.422;2023-05-15T13:00:29;40.40;8.90
67194;DHT22;54121;53.508;49.422;2023-05-15T13:02:57;40.80;8.60
67194;DHT22;54121;53.508;49.422;2023-05-15T13:05:30;40.80;9.10
67194;DHT22;54121;53.508;49.422;2023-05-15T13:08:03;41.30;8.20
67194;DHT22;54121;53.508;49.422;2023-05-15T13:10:33;42.40;7.90
67194;DHT22;54121;53.508;49.422;2023-05-15T13:13:04;42.10;8.40
67194;DHT22;54121;53.508;49.422;2023-05-15T13:18:00;41.30;8.90
67194;DHT22;54121;53.508;49.422;2023-05-15T13:20:31;40.80;8.40
67194;DHT22;54121;53.508;49.422;2023-05-15T13:23:00;41.00;9.40
67194;DHT22;54121;53.508;49.422;2023-05-15T13:25:32;41.80;8.10
67194;DHT22;54121;53.508;49.422;2023-05-15T13:27:59;41.50;8.00
67194;DHT22;54121;53.508;49.422;2023-05-15T13:30:28;41.70;8.00
67194;DHT22;54121;53.508;49.422;2023-05-15T13:32:58;40.90;7.90
67194;DHT22;54121;53.508;49.422;2023-05-15T13:35:27;42.30;8.10
67194;DHT22;54121;53.508;49.422;2023-05-15T13:37:53;41.70;7.60
67194;DHT22;54121;53.508;49.422;2023-05-15T13:40:20;41.10;7.80
67194;DHT22;54121;53.508;49.422;2023-05-15T13:42:49;42.30;7.60
67194;DHT22;54121;53.508;49.422;2023-05-15T13:45:15;41.70;7.10
67194;DHT22;54121;53.508;49.422;2023-05-15T13:47:46;40.90;8.30
67194;DHT22;54121;53.508;49.422;2023-05-15T13:50:15;41.00;8.90
67194;DHT22;54121;53.508;49.422;2023-05-15T13:52:42;41.30;8.60
67194;DHT22;54121;53.508;49.422;2023-05-15T13:55:11;40.90;8.80
67194;DHT22;54121;53.508;49.422;2023-05-15T13:57:38;40.10;9.20
67194;DHT22;54121;53.508;49.422;2023-05-15T14:00:05;42.20;8.20
67194;DHT22;54121;53.508;49.422;2023-05-15T14:02:32;41.00;8.50
67194;DHT22;54121;53.508;49.422;2023-05-15T14:04:58;40.70;8.80
67194;DHT22;54121;53.508;49.422;2023-05-15T14:07:27;40.00;9.00
67194;DHT22;54121;53.508;49.422;2023-05-15T14:09:59;40.30;9.40
67194;DHT22;54121;53.508;49.422;2023-05-15T14:12:28;41.30;8.70
67194;DHT22;54121;53.508;49.422;2023-05-15T14:14:54;40.90;8.80
67194;DHT22;54121;53.508;49.422;2023-05-15T14:17:23;41.20;8.50
67194;DHT22;54121;53.508;49.422;2023-05-15T14:19:50;42.30;8.20
67194;DHT22;54121;53.508;49.422;2023-05-15T14:22:21;40.40;9.10
67194;DHT22;54121;53.508;49.422;2023-05-15T14:24:57;41.10;9.00
67194;DHT22;54121;53.508;49.422;2023-05-15T14:27:23;40.70;9.10
67194;DHT22;54121;53.508;49.422;2023-05-15T14:29:52;39.80;9.80
67194;DHT22;54121;53.508;49.422;2023-05-15T14:32:18;40.80;9.30
67194;DHT22;54121;53.508;49.422;2023-05-15T14:34:47;39.70;9.40
67194;DHT22;54121;53.508;49.422;2023-05-15T14:37:13;39.80;10.70
67194;DHT22;54121;53.508;49.422;2023-05-15T14:39:39;40.00;9.50
67194;DHT22;54121;53.508;49.422;2023-05-15T14:42:06;39.50;9.70
67194;DHT22;54121;53.508;49.422;2023-05-15T14:44:35;39.30;10.60
67194;DHT22;54121;53.508;49.422;2023-05-15T14:47:11;39.60;9.40
67194;DHT22;54121;53.508;49.422;2023-05-15T14:49:39;39.20;9.50
67194;DHT22;54121;53.508;49.422;2023-05-15T14:52:11;38.70;9.50
67194;DHT22;54121;53.508;49.422;2023-05-15T14:54:37;38.50;9.70
67194;DHT22;54121;53.508;49.422;2023-05-15T14:57:05;38.50;10.00
67194;DHT22;54121;53.508;49.422;2023-05-15T14:59:34;38.60;10.00
67194;DHT22;54121;53.508;49.422;2023-05-15T15:02:00;38.60;10.50
67194;DHT22;54121;53.508;49.422;2023-05-15T15:04:27;37.50;10.80
67194;DHT22;54121;53.508;49.422;2023-05-15T15:07:01;37.40;10.70
67194;DHT22;54121;53.508;49.422;2023-05-15T15:09:27;37.80;10.40
67194;DHT22;54121;53.508;49.422;2023-05-15T15:11:56;37.20;10.80
67194;DHT22;54121;53.508;49.422;2023-05-15T15:14:25;36.70;10.80
67194;DHT22;54121;53.508;49.422;2023-05-15T15:16:53;36.10;11.30
67194;DHT22;54121;53.508;49.422;2023-05-15T15:19:20;35.60;11.90
67194;DHT22;54121;53.508;49.422;2023-05-15T15:21:46;35.80;12.00
67194;DHT22;54121;53.508;49.422;2023-05-15T15:24:18;35.50;12.10
67194;DHT22;54121;53.508;49.422;2023-05-15T15:26:44;35.30;12.60
67194;DHT22;54121;53.508;49.422;2023-05-15T15:29:13;35.00;12.80
67194;DHT22;54121;53.508;49.422;2023-05-15T15:31:41;34.30;13.50
67194;DHT22;54121;53.508;49.422;2023-05-15T15:34:10;34.10;13.80
67194;DHT22;54121;53.508;49.422;2023-05-15T15:36:38;33.70;14.00
67194;DHT22;54121;53.508;49.422;2023-05-15T15:39:09;33.50;14.50
67194;DHT22;54121;53.508;49.422;2023-05-15T15:41:38;33.20;14.90
67194;DHT22;54121;53.508;49.422;2023-05-15T15:44:06;33.50;14.30
67194;DHT22;54121;53.508;49.422;2023-05-15T15:46:35;32.70;15.00
67194;DHT22;54121;53.508;49.422;2023-05-15T15:49:01;32.40;15.50
67194;DHT22;54121;53.508;49.422;2023-05-15T15:51:28;32.00;15.70
67194;DHT22;54121;53.508;49.422;2023-05-15T15:53:58;32.40;15.70
67194;DHT22;54121;53.508;49.422;2023-05-15T15:56:24;31.30;16.10
67194;DHT22;54121;53.508;49.422;2023-05-15T15:58:53;31.80;16.40
67194;DHT22;54121;53.508;49.422;2023-05-15T16:01:21;31.50;16.50